Time;durP1;ratioP1;P1;durP2;ratioP2;P2;SDS_P1;SDS_P2;PMS_P1;PMS_P2;Temp;Humidity;BMP_temperature;BMP_pressure;BME280_temperature;BME280_humidity;BME280_pressure;Samples;Min_cycle;Max_cycle;Signal;HPM_P1;HPM_P2
2021/12/19 00:01:53;;;;;;;1.33;0.80;;;17.80;67.10;;;;;;10405932;28;20675;-62
2021/12/19 00:13:07;;;;;;;1.13;0.97;;;17.80;67.10;;;;;;10338489;28;20196;-61
2021/12/19 00:18:30;;;;;;;2.20;1.10;;;17.80;67.10;;;;;;10376173;28;20221;-62
2021/12/19 00:23:53;;;;;;;1.30;1.10;;;17.80;67.10;;;;;;10368770;28;20191;-65
2021/12/19 00:29:16;;;;;;;1.07;0.97;;;17.80;67.10;;;;;;10364039;28;20281;-61
2021/12/19 00:34:39;;;;;;;0.80;0.80;;;17.80;67.10;;;;;;10409004;28;20194;-61
2021/12/19 00:40:02;;;;;;;1.27;0.90;;;17.90;67.10;;;;;;10415830;28;20236;-62
2021/12/19 00:45:28;;;;;;;1.43;0.90;;;17.80;67.10;;;;;;10405022;28;20202;-64
2021/12/19 00:50:52;;;;;;;1.40;1.03;;;17.80;67.20;;;;;;10374284;28;20209;-62
2021/12/19 00:56:14;;;;;;;1.00;0.90;;;17.80;67.10;;;;;;10373850;28;20336;-61
2021/12/19 01:01:38;;;;;;;1.13;0.77;;;17.80;67.10;;;;;;10372661;28;20218;-65
2021/12/19 01:07:02;;;;;;;1.23;1.00;;;17.80;67.00;;;;;;10373051;28;20218;-62
2021/12/19 01:12:25;;;;;;;1.47;0.90;;;17.80;67.00;;;;;;10373348;28;20294;-61
2021/12/19 01:17:48;;;;;;;1.63;1.00;;;17.80;67.10;;;;;;10373364;28;20222;-61
2021/12/19 01:23:12;;;;;;;1.30;1.00;;;17.80;67.10;;;;;;10371980;28;20183;-64
2021/12/19 01:28:34;;;;;;;1.93;1.13;;;17.80;67.00;;;;;;10370434;28;20580;-65
2021/12/19 01:33:56;;;;;;;1.20;0.93;;;17.80;67.00;;;;;;10371757;28;20674;-61
2021/12/19 01:39:20;;;;;;;1.47;0.97;;;17.80;67.00;;;;;;10370955;28;20636;-61
2021/12/19 01:44:44;;;;;;;2.03;1.00;;;17.80;67.00;;;;;;10371384;28;20199;-60
2021/12/19 01:50:09;;;;;;;1.67;0.90;;;17.80;67.00;;;;;;10371305;28;20206;-62
2021/12/19 01:55:33;;;;;;;1.63;1.00;;;17.80;67.00;;;;;;10371962;28;20190;-61
2021/12/19 02:00:57;;;;;;;1.33;0.87;;;17.80;67.00;;;;;;10371605;28;20233;-59
2021/12/19 02:06:19;;;;;;;1.33;1.00;;;17.80;67.00;;;;;;10370738;28;20217;-63
2021/12/19 02:11:44;;;;;;;1.20;0.80;;;17.70;66.90;;;;;;10371075;28;20197;-62
2021/12/19 02:17:06;;;;;;;1.13;1.00;;;17.80;67.50;;;;;;10370165;28;20218;-62
2021/12/19 02:22:30;;;;;;;1.67;1.10;;;17.80;67.00;;;;;;10371132;28;20214;-62
2021/12/19 02:27:52;;;;;;;2.00;0.90;;;17.80;66.90;;;;;;10380804;28;20217;-65
2021/12/19 02:33:19;;;;;;;1.00;0.80;;;17.80;66.90;;;;;;10410698;28;20186;-61
2021/12/19 02:50:03;;;;;;;0.80;0.67;;;17.80;67.00;;;;;;10360620;28;20726;-60
2021/12/19 02:55:26;;;;;;;1.53;0.90;;;17.70;66.90;;;;;;10368579;28;20202;-62
2021/12/19 03:00:49;;;;;;;1.27;1.00;;;17.70;66.90;;;;;;10368902;28;20230;-61
2021/12/19 03:06:11;;;;;;;2.00;0.80;;;17.70;66.90;;;;;;10368847;28;20198;-62
2021/12/19 03:12:04;;;;;;;1.00;0.73;;;17.80;66.90;;;;;;10372548;28;20190;-62
2021/12/19 03:23:09;;;;;;;0.60;0.60;;;17.70;66.90;;;;;;10368166;28;20305;-63
2021/12/19 03:28:32;;;;;;;1.60;1.10;;;17.70;66.90;;;;;;10360411;28;20210;-61
2021/12/19 03:33:55;;;;;;;0.97;0.70;;;17.70;66.80;;;;;;10367214;28;20198;-61
2021/12/19 03:39:26;;;;;;;0.93;0.87;;;17.70;66.80;;;;;;10366464;28;20772;-61
2021/12/19 03:44:49;;;;;;;0.73;0.70;;;17.70;66.80;;;;;;10364339;28;20206;-61
2021/12/19 03:50:15;;;;;;;1.43;0.80;;;17.70;66.80;;;;;;10367946;28;20217;-61
2021/12/19 03:55:38;;;;;;;1.50;0.90;;;17.80;66.90;;;;;;10367392;28;20195;-62
2021/12/19 04:01:05;;;;;;;0.93;0.70;;;17.70;66.80;;;;;;10367749;28;20218;-60
2021/12/19 04:06:27;;;;;;;1.70;0.87;;;17.70;66.80;;;;;;10368159;28;20219;-64
2021/12/19 04:11:51;;;;;;;0.80;0.70;;;17.70;66.80;;;;;;10373846;28;20197;-63
2021/12/19 04:17:15;;;;;;;1.23;0.70;;;17.70;66.80;;;;;;10374512;28;20309;-64
2021/12/19 04:22:37;;;;;;;1.20;0.90;;;17.70;66.80;;;;;;10375532;28;20218;-64
2021/12/19 04:27:59;;;;;;;1.00;0.90;;;17.70;66.80;;;;;;10380195;28;20225;-63
2021/12/19 04:33:24;;;;;;;1.23;0.97;;;17.70;66.80;;;;;;10409732;28;20190;-62
2021/12/19 04:39:14;;;;;;;1.67;1.03;;;17.70;66.80;;;;;;10367111;28;20230;-63
2021/12/19 04:50:55;;;;;;;1.90;0.80;;;17.70;66.80;;;;;;10374427;28;20684;-60
2021/12/19 04:56:25;;;;;;;1.50;1.00;;;17.70;66.80;;;;;;10373312;28;20290;-64
2021/12/19 05:18:43;;;;;;;2.07;1.00;;;17.70;66.80;;;;;;10372693;28;20214;-64
2021/12/19 05:24:21;;;;;;;1.33;0.90;;;17.70;66.80;;;;;;10370704;28;20198;-64
2021/12/19 05:29:43;;;;;;;1.17;0.70;;;17.70;66.80;;;;;;10372094;28;20215;-63
2021/12/19 05:35:07;;;;;;;0.87;0.70;;;17.70;66.80;;;;;;10371700;28;20203;-62
2021/12/19 05:46:10;;;;;;;1.27;0.60;;;17.70;66.80;;;;;;10409368;28;20714;-60
2021/12/19 05:51:32;;;;;;;0.77;0.67;;;17.70;66.80;;;;;;10411789;28;20197;-64
2021/12/19 05:56:56;;;;;;;1.00;0.80;;;17.70;66.80;;;;;;10412351;28;20271;-61
2021/12/19 06:02:19;;;;;;;1.77;0.90;;;17.70;66.80;;;;;;10411759;28;20221;-64
2021/12/19 06:07:42;;;;;;;0.87;0.70;;;17.70;66.70;;;;;;10411511;28;20858;-62
2021/12/19 06:13:05;;;;;;;1.30;0.80;;;17.70;66.70;;;;;;10395233;28;20186;-62
2021/12/19 06:18:27;;;;;;;1.23;0.60;;;17.70;66.70;;;;;;10389478;28;20227;-63
2021/12/19 06:23:49;;;;;;;1.23;0.90;;;17.70;66.70;;;;;;10369519;28;20217;-62
2021/12/19 06:29:13;;;;;;;1.30;0.90;;;17.70;66.70;;;;;;10370000;28;20692;-62
2021/12/19 06:34:35;;;;;;;0.90;0.50;;;17.80;67.10;;;;;;10384751;28;20190;-62
2021/12/19 06:39:57;;;;;;;0.63;0.63;;;17.80;66.70;;;;;;10410499;28;20232;-62
2021/12/19 06:45:22;;;;;;;1.07;0.80;;;17.80;66.70;;;;;;10406371;22;20229;-67
2021/12/19 06:50:44;;;;;;;0.87;0.50;;;17.80;66.70;;;;;;10371233;28;20206;-67
2021/12/19 06:56:06;;;;;;;1.33;0.70;;;17.80;66.70;;;;;;10368501;28;20202;-66
2021/12/19 07:01:29;;;;;;;1.13;0.70;;;17.80;66.70;;;;;;10367761;28;20282;-66
2021/12/19 07:06:52;;;;;;;1.80;0.80;;;17.80;66.70;;;;;;10368015;28;20230;-66
2021/12/19 07:12:15;;;;;;;1.20;0.90;;;17.80;66.70;;;;;;10368788;28;20892;-66
2021/12/19 07:17:38;;;;;;;1.17;0.63;;;17.80;66.70;;;;;;10368223;28;20214;-66
2021/12/19 07:23:00;;;;;;;1.00;0.70;;;17.80;66.70;;;;;;10367434;28;20571;-66
2021/12/19 07:28:22;;;;;;;1.00;0.80;;;17.80;66.70;;;;;;10367911;28;20218;-66
2021/12/19 07:33:46;;;;;;;1.47;0.77;;;17.80;66.70;;;;;;10367886;28;20553;-65
2021/12/19 07:39:13;;;;;;;0.97;0.60;;;17.80;66.70;;;;;;10366357;28;20221;-66
2021/12/19 07:44:36;;;;;;;1.53;0.80;;;17.80;66.70;;;;;;10371588;28;20206;-66
2021/12/19 07:50:00;;;;;;;1.00;0.63;;;17.80;66.70;;;;;;10375146;28;20222;-66
2021/12/19 07:55:22;;;;;;;1.97;0.80;;;17.80;66.70;;;;;;10376174;28;20571;-66
2021/12/19 08:00:44;;;;;;;1.27;0.70;;;17.80;66.70;;;;;;10375744;28;20736;-66
2021/12/19 08:06:08;;;;;;;1.20;0.77;;;17.80;66.70;;;;;;10374939;28;20581;-66
2021/12/19 08:11:44;;;;;;;1.60;0.87;;;17.80;66.70;;;;;;10375012;28;20187;-66
2021/12/19 08:17:06;;;;;;;1.30;0.77;;;17.80;66.50;;;;;;10370419;28;20221;-66
2021/12/19 08:22:31;;;;;;;1.80;0.90;;;17.80;66.70;;;;;;10375214;28;20221;-65
2021/12/19 08:27:54;;;;;;;1.20;0.87;;;17.80;66.70;;;;;;10373892;28;20223;-65
2021/12/19 08:33:17;;;;;;;1.90;0.90;;;17.80;66.70;;;;;;10375073;28;20204;-66
2021/12/19 08:38:40;;;;;;;1.50;0.93;;;17.80;66.70;;;;;;10366562;28;20222;-66
2021/12/19 08:44:02;;;;;;;1.87;0.93;;;17.80;66.70;;;;;;10383005;28;20222;-65
2021/12/19 08:49:24;;;;;;;2.00;1.00;;;17.80;66.70;;;;;;10415178;28;20214;-66
2021/12/19 08:54:48;;;;;;;0.97;0.63;;;17.80;66.70;;;;;;10404351;28;20572;-67
2021/12/19 09:00:11;;;;;;;1.13;0.97;;;17.80;66.70;;;;;;10372576;28;20215;-66
2021/12/19 09:05:34;;;;;;;1.43;0.90;;;17.80;66.80;;;;;;10371693;28;20655;-66
2021/12/19 09:10:58;;;;;;;2.30;1.10;;;17.80;66.70;;;;;;10373487;28;20567;-67
2021/12/19 09:16:20;;;;;;;1.40;0.90;;;17.80;66.70;;;;;;10372479;28;20580;-66
2021/12/19 09:21:43;;;;;;;2.13;1.20;;;17.80;66.70;;;;;;10372177;28;20304;-68
2021/12/19 09:27:07;;;;;;;2.50;1.10;;;17.80;66.80;;;;;;10367971;28;20222;-67
2021/12/19 09:32:29;;;;;;;2.43;1.10;;;17.80;66.70;;;;;;10371434;28;20186;-67
2021/12/19 09:37:51;;;;;;;2.03;1.27;;;17.80;66.70;;;;;;10368458;28;20218;-67
2021/12/19 09:43:41;;;;;;;2.93;1.03;;;17.80;66.70;;;;;;10392275;28;20591;-66
2021/12/19 09:49:06;;;;;;;2.00;1.27;;;17.80;66.70;;;;;;10412226;28;20209;-67
2021/12/19 09:54:28;;;;;;;2.27;1.20;;;17.80;66.70;;;;;;10362280;28;20202;-67
2021/12/19 09:59:52;;;;;;;2.40;1.10;;;17.80;66.60;;;;;;10361874;28;20218;-67
2021/12/19 10:05:19;;;;;;;1.43;1.20;;;17.90;66.60;;;;;;10369500;28;20651;-67
2021/12/19 10:10:46;;;;;;;2.70;1.53;;;17.90;66.60;;;;;;10369544;28;20210;-68
2021/12/19 10:16:25;;;;;;;3.57;1.90;;;17.90;66.60;;;;;;10358016;28;20199;-68
2021/12/19 10:21:47;;;;;;;4.13;1.83;;;17.90;66.50;;;;;;10367826;28;20214;-67
2021/12/19 10:27:09;;;;;;;4.33;1.70;;;17.90;66.60;;;;;;10366373;28;20218;-68
2021/12/19 10:32:33;;;;;;;3.50;2.00;;;17.90;66.60;;;;;;10375718;28;20870;-68
2021/12/19 10:37:55;;;;;;;4.07;2.10;;;18.00;66.60;;;;;;10365371;28;20587;-67
2021/12/19 10:43:19;;;;;;;5.37;1.93;;;17.90;66.60;;;;;;10364553;28;20668;-67
2021/12/19 10:48:43;;;;;;;3.87;2.10;;;17.90;66.70;;;;;;10366055;28;20592;-67
2021/12/19 10:54:07;;;;;;;4.60;1.80;;;17.90;66.80;;;;;;10364710;28;20735;-66
2021/12/19 10:59:29;;;;;;;4.40;1.97;;;17.90;66.80;;;;;;10367898;28;20214;-67
2021/12/19 11:04:52;;;;;;;3.47;1.73;;;17.90;66.90;;;;;;10365995;28;20205;-68
2021/12/19 11:10:27;;;;;;;6.23;2.40;;;17.90;66.60;;;;;;10367233;28;20218;-68
2021/12/19 11:15:50;;;;;;;5.40;2.50;;;17.90;66.50;;;;;;10366467;28;20207;-68
2021/12/19 11:21:13;;;;;;;4.90;2.13;;;17.90;66.90;;;;;;10364697;28;20210;-67
2021/12/19 11:26:38;;;;;;;5.43;1.90;;;18.00;67.20;;;;;;10370597;28;20585;-69
2021/12/19 11:32:03;;;;;;;3.57;1.73;;;18.00;67.40;;;;;;10363678;28;20198;-68
2021/12/19 11:37:28;;;;;;;3.57;1.87;;;18.00;67.60;;;;;;10366456;28;20210;-67
2021/12/19 11:43:00;;;;;;;3.27;1.90;;;18.10;67.80;;;;;;10361718;28;20226;-67
2021/12/19 11:48:26;;;;;;;4.13;2.00;;;18.10;67.50;;;;;;10365406;28;20781;-67
2021/12/19 11:53:50;;;;;;;5.03;2.23;;;18.10;67.60;;;;;;10365785;28;20891;-68
2021/12/19 11:59:20;;;;;;;3.50;1.83;;;18.10;67.70;;;;;;10366839;28;20224;-67
2021/12/19 12:04:42;;;;;;;4.30;1.80;;;18.20;67.50;;;;;;10362042;28;20681;-67
2021/12/19 12:10:06;;;;;;;4.87;2.43;;;18.10;67.40;;;;;;10366056;28;20214;-66
2021/12/19 12:15:34;;;;;;;11.23;5.40;;;18.20;67.50;;;;;;10365900;28;20198;-65
2021/12/19 12:20:56;;;;;;;19.27;8.77;;;18.20;67.80;;;;;;10361075;28;20250;-68
2021/12/19 12:26:30;;;;;;;10.20;5.10;;;18.20;67.80;;;;;;10365760;28;20195;-68
2021/12/19 12:31:54;;;;;;;9.10;3.60;;;18.20;67.80;;;;;;10369653;28;20250;-66
2021/12/19 12:37:16;;;;;;;7.07;3.10;;;18.20;68.00;;;;;;10375807;28;20710;-68
2021/12/19 12:43:01;;;;;;;9.75;4.70;;;18.10;67.90;;;;;;10368904;28;20525;-67
2021/12/19 12:48:33;;;;;;;8.77;4.00;;;18.70;65.60;;;;;;10417923;22;20225;-63
2021/12/19 12:53:58;;;;;;;9.50;4.20;;;18.30;66.90;;;;;;10410848;28;20601;-62
2021/12/19 12:59:24;;;;;;;8.30;3.77;;;18.10;67.30;;;;;;10411855;28;20591;-62
2021/12/19 13:04:48;;;;;;;10.93;4.30;;;18.10;67.50;;;;;;10411980;28;20217;-62
2021/12/19 13:10:10;;;;;;;8.43;3.37;;;18.10;67.60;;;;;;10412330;28;20228;-62
2021/12/19 13:15:34;;;;;;;10.33;4.00;;;18.00;67.50;;;;;;10411395;28;20194;-61
2021/12/19 13:21:02;;;;;;;7.20;3.87;;;18.10;67.60;;;;;;10411401;28;20236;-62
2021/12/19 13:26:31;;;;;;;9.13;3.97;;;18.00;67.50;;;;;;10411398;28;20205;-62
2021/12/19 13:31:55;;;;;;;6.37;3.67;;;18.10;67.50;;;;;;10410646;28;20205;-61
2021/12/19 13:37:17;;;;;;;9.00;3.60;;;18.00;67.40;;;;;;10408238;28;20687;-62
2021/12/19 13:42:43;;;;;;;7.30;3.43;;;18.00;67.40;;;;;;10408944;28;20222;-62
2021/12/19 13:48:10;;;;;;;5.73;3.20;;;18.00;67.40;;;;;;10411009;28;20237;-62
2021/12/19 13:53:34;;;;;;;8.23;3.50;;;18.00;67.30;;;;;;10409755;28;20584;-61
2021/12/19 13:58:59;;;;;;;8.50;3.57;;;18.00;67.30;;;;;;10408433;28;20579;-62
2021/12/19 14:04:25;;;;;;;8.43;3.43;;;18.10;67.30;;;;;;10410200;28;20213;-62
2021/12/19 14:09:47;;;;;;;4.93;3.10;;;18.00;67.20;;;;;;10397675;28;20213;-62
2021/12/19 14:15:10;;;;;;;9.27;3.73;;;18.00;67.20;;;;;;10408143;28;20194;-62
2021/12/19 14:20:35;;;;;;;6.80;3.03;;;18.00;67.10;;;;;;10409435;28;20257;-61
2021/12/19 14:25:58;;;;;;;5.03;3.10;;;18.10;67.10;;;;;;10395450;28;20197;-60
2021/12/19 14:31:20;;;;;;;5.30;3.07;;;18.00;67.10;;;;;;10408288;28;20204;-60
2021/12/19 14:36:44;;;;;;;5.70;2.63;;;18.00;67.00;;;;;;10406895;28;20214;-60
2021/12/19 14:42:11;;;;;;;5.07;2.77;;;18.10;67.10;;;;;;10408283;28;20224;-60
2021/12/19 14:47:43;;;;;;;5.80;2.73;;;18.00;67.00;;;;;;10407633;28;20229;-61
2021/12/19 14:53:11;;;;;;;6.03;2.80;;;18.00;66.90;;;;;;10405943;28;20552;-62
2021/12/19 14:58:37;;;;;;;5.00;2.73;;;18.00;67.00;;;;;;10388816;28;20568;-65
2021/12/19 15:04:01;;;;;;;3.57;2.00;;;18.00;66.90;;;;;;10404629;28;20690;-61
2021/12/19 15:09:27;;;;;;;5.70;2.60;;;18.10;67.00;;;;;;10404724;28;20214;-63
2021/12/19 15:14:49;;;;;;;4.83;2.13;;;18.00;67.00;;;;;;10406889;28;20205;-64
2021/12/19 15:20:12;;;;;;;5.57;2.80;;;18.00;67.00;;;;;;10401048;28;20228;-58
2021/12/19 15:25:36;;;;;;;5.37;2.77;;;18.00;66.90;;;;;;10406364;28;20310;-60
2021/12/19 15:31:00;;;;;;;3.77;2.40;;;18.00;66.90;;;;;;10405948;28;20556;-65
2021/12/19 15:36:22;;;;;;;5.53;2.40;;;18.00;67.00;;;;;;10404775;28;20675;-62
2021/12/19 15:41:45;;;;;;;3.73;2.13;;;18.00;67.20;;;;;;10404029;28;20218;-61
2021/12/19 15:47:08;;;;;;;5.10;2.47;;;18.00;67.30;;;;;;10400104;28;20320;-61
2021/12/19 15:52:30;;;;;;;4.37;2.13;;;18.00;67.30;;;;;;10404660;28;20209;-62
2021/12/19 15:57:54;;;;;;;5.17;2.00;;;18.00;67.20;;;;;;10395735;28;20209;-62
2021/12/19 16:03:16;;;;;;;3.97;2.30;;;18.00;67.10;;;;;;10394877;28;20222;-64
2021/12/19 16:08:38;;;;;;;5.63;2.40;;;18.00;67.10;;;;;;10406022;28;20244;-64
2021/12/19 16:14:02;;;;;;;5.13;2.53;;;18.00;67.00;;;;;;10413446;28;20194;-61
2021/12/19 16:19:24;;;;;;;7.63;2.33;;;18.00;67.00;;;;;;10413922;28;20225;-60
2021/12/19 16:24:46;;;;;;;4.30;2.17;;;18.00;67.00;;;;;;10407954;28;20221;-60
2021/12/19 16:30:12;;;;;;;5.10;2.40;;;18.00;67.00;;;;;;10411823;28;20225;-61
2021/12/19 16:35:38;;;;;;;5.77;2.27;;;18.00;67.00;;;;;;10410912;28;20205;-61
2021/12/19 16:41:03;;;;;;;4.77;2.30;;;18.00;66.90;;;;;;10412084;28;20297;-60
2021/12/19 16:46:26;;;;;;;5.00;2.00;;;18.00;66.90;;;;;;10410936;28;20283;-63
2021/12/19 16:51:49;;;;;;;5.93;2.40;;;18.00;66.90;;;;;;10407491;28;20204;-60
2021/12/19 16:57:11;;;;;;;4.97;2.10;;;18.00;66.90;;;;;;10410720;28;20350;-61
2021/12/19 17:02:34;;;;;;;4.20;2.03;;;18.00;66.90;;;;;;10403581;28;20218;-61
2021/12/19 17:07:57;;;;;;;4.47;2.20;;;18.00;66.80;;;;;;10405980;28;20575;-62
2021/12/19 17:13:28;;;;;;;4.23;2.27;;;18.00;67.50;;;;;;10411570;28;20194;-61
2021/12/19 17:18:52;;;;;;;5.93;2.60;;;18.00;67.00;;;;;;10411917;28;20213;-62
2021/12/19 17:24:14;;;;;;;3.77;1.90;;;18.00;67.00;;;;;;10397303;28;20233;-60
2021/12/19 17:29:37;;;;;;;3.70;2.10;;;18.00;67.00;;;;;;10410187;28;20322;-62
2021/12/19 17:35:00;;;;;;;6.60;2.70;;;18.00;67.00;;;;;;10411931;28;20536;-63
2021/12/19 17:40:29;;;;;;;4.17;2.07;;;18.00;67.10;;;;;;10410380;28;20224;-63
2021/12/19 17:45:54;;;;;;;3.80;1.83;;;18.00;67.20;;;;;;10410178;28;20218;-63
2021/12/19 17:51:18;;;;;;;7.93;2.53;;;18.00;67.20;;;;;;10409380;28;20201;-63
2021/12/19 17:56:40;;;;;;;3.37;1.93;;;18.00;67.20;;;;;;10412806;28;20286;-63
2021/12/19 18:02:03;;;;;;;4.67;2.33;;;18.00;67.20;;;;;;10412812;28;20213;-64
2021/12/19 18:07:26;;;;;;;5.90;2.37;;;18.00;67.20;;;;;;10411961;28;20221;-64
2021/12/19 18:12:50;;;;;;;4.63;2.20;;;18.00;67.20;;;;;;10411836;28;20222;-62
2021/12/19 18:18:12;;;;;;;5.00;2.23;;;18.00;67.20;;;;;;10410839;28;20683;-64
2021/12/19 18:23:36;;;;;;;5.83;2.53;;;18.00;67.20;;;;;;10412103;28;20225;-64
2021/12/19 18:29:02;;;;;;;7.03;3.07;;;18.00;67.20;;;;;;10410923;28;20222;-63
2021/12/19 18:34:26;;;;;;;3.70;2.17;;;18.00;67.20;;;;;;10411417;28;20194;-61
2021/12/19 18:39:55;;;;;;;4.87;2.50;;;18.00;67.20;;;;;;10409307;28;20348;-60
2021/12/19 18:45:24;;;;;;;7.00;2.50;;;18.00;67.20;;;;;;10408672;28;20210;-63
2021/12/19 18:51:00;;;;;;;6.67;2.30;;;18.00;67.20;;;;;;10409879;28;20218;-63
2021/12/19 18:56:24;;;;;;;2.83;1.70;;;17.90;67.10;;;;;;10410168;28;20193;-63
2021/12/19 19:01:59;;;;;;;4.30;2.43;;;18.00;67.10;;;;;;10408815;28;20683;-63
2021/12/19 19:07:21;;;;;;;5.13;2.30;;;18.00;67.10;;;;;;10410097;28;20291;-63
2021/12/19 19:12:50;;;;;;;6.07;2.60;;;17.90;67.10;;;;;;10409376;28;20560;-62
2021/12/19 19:18:12;;;;;;;5.17;2.83;;;18.00;67.10;;;;;;10409503;28;20236;-63
2021/12/19 19:23:34;;;;;;;5.20;2.30;;;18.00;67.10;;;;;;10408226;28;20224;-62
2021/12/19 19:28:58;;;;;;;7.13;2.37;;;17.90;67.00;;;;;;10405140;28;20229;-63
2021/12/19 19:34:22;;;;;;;4.43;2.30;;;18.00;67.00;;;;;;10408700;28;20544;-63
2021/12/19 19:40:05;;;;;;;4.27;2.00;;;17.90;67.00;;;;;;10407472;28;20213;-63
2021/12/19 19:51:08;;;;;;;4.23;2.23;;;18.00;67.00;;;;;;10375662;28;20263;-61
2021/12/19 19:56:30;;;;;;;4.00;2.13;;;18.00;67.00;;;;;;10413176;28;20210;-64
2021/12/19 20:01:56;;;;;;;3.50;2.20;;;18.00;67.00;;;;;;10412183;28;20201;-64
2021/12/19 20:07:19;;;;;;;5.73;2.30;;;18.00;67.00;;;;;;10412566;28;20220;-59
2021/12/19 20:12:41;;;;;;;4.83;2.27;;;17.90;66.90;;;;;;10414263;28;20201;-62
2021/12/19 20:18:04;;;;;;;3.30;1.87;;;17.90;66.90;;;;;;10415231;28;20217;-62
2021/12/19 20:23:28;;;;;;;4.60;2.20;;;17.90;66.90;;;;;;10416050;28;20218;-63
2021/12/19 20:28:50;;;;;;;4.97;1.77;;;18.00;66.90;;;;;;10415565;28;20236;-60
2021/12/19 20:34:14;;;;;;;3.77;1.83;;;17.90;66.90;;;;;;10416022;28;20190;-60
2021/12/19 20:39:37;;;;;;;4.17;1.90;;;17.90;66.80;;;;;;10415138;28;20233;-63
2021/12/19 20:45:01;;;;;;;4.97;2.33;;;17.90;66.80;;;;;;10415225;28;20667;-62
2021/12/19 20:50:24;;;;;;;4.80;2.40;;;18.00;66.80;;;;;;10423388;28;20216;-62
2021/12/19 20:55:46;;;;;;;5.07;2.33;;;18.00;66.90;;;;;;10455588;28;20193;-62
2021/12/19 21:01:08;;;;;;;4.83;2.27;;;18.00;66.80;;;;;;10422467;28;20222;-61
2021/12/19 21:06:32;;;;;;;4.50;2.13;;;17.90;66.80;;;;;;10414551;28;20229;-62
2021/12/19 21:11:59;;;;;;;5.13;2.50;;;17.90;66.80;;;;;;10414008;28;20198;-62
2021/12/19 21:23:02;;;;;;;4.17;2.27;;;17.90;66.80;;;;;;10430986;28;20210;-63
2021/12/19 21:28:24;;;;;;;4.50;2.50;;;17.90;66.80;;;;;;10413387;28;20217;-61
2021/12/19 21:33:47;;;;;;;3.53;2.20;;;17.90;66.70;;;;;;10412612;28;20194;-63
2021/12/19 21:39:10;;;;;;;5.30;2.37;;;17.90;66.70;;;;;;10412743;28;20765;-62
2021/12/19 21:44:33;;;;;;;6.87;2.60;;;17.90;66.70;;;;;;10412194;28;20214;-63
2021/12/19 21:49:55;;;;;;;5.60;2.13;;;17.90;66.70;;;;;;10412763;28;20233;-63
2021/12/19 21:55:19;;;;;;;4.97;2.23;;;17.90;66.80;;;;;;10411323;28;20572;-64
2021/12/19 22:00:41;;;;;;;4.20;2.37;;;17.90;66.70;;;;;;10412433;28;20217;-63
2021/12/19 22:06:04;;;;;;;4.53;1.80;;;17.90;66.80;;;;;;10410588;28;20303;-63
2021/12/19 22:11:31;;;;;;;4.10;2.30;;;17.90;66.70;;;;;;10410235;28;20198;-63
2021/12/19 22:16:53;;;;;;;4.83;2.20;;;17.90;66.70;;;;;;10408140;28;20217;-63
2021/12/19 22:22:16;;;;;;;4.67;1.93;;;17.90;66.80;;;;;;10410590;28;20221;-63
2021/12/19 22:27:39;;;;;;;4.67;2.10;;;17.90;66.70;;;;;;10409022;28;20396;-63
2021/12/19 22:33:02;;;;;;;5.60;2.30;;;17.90;66.70;;;;;;10410922;28;20560;-62
2021/12/19 22:38:25;;;;;;;3.83;2.13;;;17.90;66.70;;;;;;10411326;28;20224;-62
2021/12/19 22:43:49;;;;;;;4.60;2.30;;;17.90;66.70;;;;;;10411123;28;20215;-63
2021/12/19 22:49:11;;;;;;;3.63;1.80;;;17.90;67.30;;;;;;10410710;28;20229;-64
2021/12/19 22:54:33;;;;;;;5.13;2.50;;;17.90;66.70;;;;;;10405234;28;20189;-63
2021/12/19 22:59:57;;;;;;;4.37;1.93;;;17.90;66.70;;;;;;10409771;28;20218;-64
2021/12/19 23:05:21;;;;;;;4.50;1.83;;;17.90;67.30;;;;;;10410201;28;20243;-63
2021/12/19 23:10:45;;;;;;;4.20;2.57;;;17.90;66.70;;;;;;10405722;28;20224;-64
2021/12/19 23:16:20;;;;;;;4.67;1.90;;;17.90;66.60;;;;;;10408980;28;20186;-62
2021/12/19 23:21:43;;;;;;;4.70;2.10;;;17.90;66.60;;;;;;10408373;28;20190;-63
2021/12/19 23:27:05;;;;;;;4.77;2.20;;;17.90;66.60;;;;;;10408282;28;20595;-64
2021/12/19 23:32:32;;;;;;;4.83;2.23;;;17.90;66.60;;;;;;10409897;28;20205;-62
2021/12/19 23:37:59;;;;;;;4.90;2.20;;;17.90;66.60;;;;;;10409754;28;20217;-62
2021/12/19 23:49:04;;;;;;;3.57;1.83;;;17.90;66.60;;;;;;10409197;28;20260;-63
2021/12/19 23:54:26;;;;;;;3.40;1.80;;;17.90;66.60;;;;;;10403364;28;20212;-62
2021/12/19 23:59:48;;;;;;;3.83;1.83;;;17.90;66.60;;;;;;10408787;28;20222;-62
